Time;durP1;ratioP1;P1;durP2;ratioP2;P2;SDS_P1;SDS_P2;PMS_P1;PMS_P2;Temp;Humidity;BMP_temperature;BMP_pressure;BME280_temperature;BME280_humidity;BME280_pressure;Samples;Min_cycle;Max_cycle;Signal;HPM_P1;HPM_P2
2023/09/19 00:00:58;;;;;;;18.08;6.45;;;;;;;;;;5031768;28;20024;-49
2023/09/19 00:03:28;;;;;;;15.40;6.75;;;;;;;;;;5026456;28;20079;-49
2023/09/19 00:05:55;;;;;;;15.95;6.50;;;;;;;;;;5032055;28;20033;-53
2023/09/19 00:08:24;;;;;;;18.48;6.70;;;;;;;;;;5014413;28;20063;-55
2023/09/19 00:10:50;;;;;;;24.67;7.05;;;;;;;;;;5013777;28;20021;-54
2023/09/19 00:13:16;;;;;;;19.27;6.38;;;;;;;;;;5031933;28;20475;-50
2023/09/19 00:15:48;;;;;;;20.67;6.60;;;;;;;;;;5031589;28;20013;-50
2023/09/19 00:18:15;;;;;;;19.42;7.18;;;;;;;;;;5031457;28;20028;-52
2023/09/19 00:20:42;;;;;;;18.33;7.00;;;;;;;;;;5031518;28;20613;-55
2023/09/19 00:23:08;;;;;;;16.85;6.20;;;;;;;;;;5031891;28;20022;-54
2023/09/19 00:25:35;;;;;;;19.15;6.50;;;;;;;;;;5031859;28;20037;-53
2023/09/19 00:28:01;;;;;;;15.77;6.03;;;;;;;;;;5032300;28;20036;-48
2023/09/19 00:30:27;;;;;;;17.95;5.90;;;;;;;;;;5031774;28;20036;-51
2023/09/19 00:32:54;;;;;;;16.85;6.38;;;;;;;;;;5031246;28;20025;-50
2023/09/19 00:35:23;;;;;;;18.38;6.35;;;;;;;;;;5030788;28;20014;-50
2023/09/19 00:37:49;;;;;;;18.40;6.30;;;;;;;;;;5031343;28;20098;-55
2023/09/19 00:40:16;;;;;;;21.38;6.60;;;;;;;;;;5031121;28;20601;-49
2023/09/19 00:42:43;;;;;;;16.48;6.53;;;;;;;;;;5013758;28;20060;-49
2023/09/19 00:45:13;;;;;;;18.52;7.00;;;;;;;;;;5031472;28;20037;-50
2023/09/19 00:47:44;;;;;;;16.75;6.85;;;;;;;;;;5031269;28;20050;-47
2023/09/19 00:50:10;;;;;;;20.40;6.60;;;;;;;;;;5030977;28;20522;-53
2023/09/19 00:52:39;;;;;;;18.10;7.00;;;;;;;;;;5013654;28;20075;-49
2023/09/19 00:55:10;;;;;;;18.90;8.00;;;;;;;;;;5013216;28;20051;-49
2023/09/19 00:57:38;;;;;;;19.38;7.20;;;;;;;;;;5031167;28;20013;-55
2023/09/19 01:00:08;;;;;;;19.65;6.63;;;;;;;;;;5030627;28;20109;-50
2023/09/19 01:02:34;;;;;;;19.67;7.50;;;;;;;;;;5031018;28;20030;-50
2023/09/19 01:05:01;;;;;;;19.70;6.97;;;;;;;;;;5012967;28;20033;-49
2023/09/19 01:07:29;;;;;;;19.48;8.50;;;;;;;;;;5028596;28;20064;-54
2023/09/19 01:09:58;;;;;;;16.27;6.50;;;;;;;;;;5010607;28;20414;-47
2023/09/19 01:12:27;;;;;;;25.73;8.30;;;;;;;;;;5030840;28;20055;-52
2023/09/19 01:15:00;;;;;;;18.90;6.97;;;;;;;;;;5030545;28;20017;-52
2023/09/19 01:17:32;;;;;;;21.77;7.15;;;;;;;;;;5031174;28;20426;-50
2023/09/19 01:20:05;;;;;;;24.52;8.20;;;;;;;;;;5013309;28;20112;-49
2023/09/19 01:22:57;;;;;;;21.10;8.40;;;;;;;;;;5031279;28;20033;-50
2023/09/19 01:25:35;;;;;;;19.08;7.38;;;;;;;;;;5028259;28;20029;-50
2023/09/19 01:28:21;;;;;;;21.08;7.32;;;;;;;;;;5030984;28;20083;-48
2023/09/19 01:30:48;;;;;;;21.63;7.30;;;;;;;;;;5030859;28;20025;-52
2023/09/19 01:33:14;;;;;;;19.13;7.80;;;;;;;;;;5013206;28;20045;-48
2023/09/19 01:35:41;;;;;;;19.85;7.50;;;;;;;;;;5027538;28;20387;-49
2023/09/19 01:38:11;;;;;;;23.88;8.05;;;;;;;;;;5029739;28;20018;-51
2023/09/19 01:40:41;;;;;;;21.17;7.32;;;;;;;;;;5030627;28;20435;-46
2023/09/19 01:43:21;;;;;;;20.85;8.27;;;;;;;;;;5030837;28;20076;-53
2023/09/19 01:46:00;;;;;;;20.70;7.30;;;;;;;;;;5030716;28;20487;-48
2023/09/19 01:48:26;;;;;;;20.95;7.63;;;;;;;;;;5033182;28;20548;-52
2023/09/19 01:51:12;;;;;;;21.73;7.25;;;;;;;;;;5034121;28;20017;-50
2023/09/19 01:53:43;;;;;;;20.23;7.25;;;;;;;;;;5016721;28;20025;-53
2023/09/19 01:56:13;;;;;;;20.65;8.45;;;;;;;;;;5034394;28;20495;-49
2023/09/19 01:58:54;;;;;;;22.38;8.10;;;;;;;;;;5016613;28;20021;-51
2023/09/19 02:01:22;;;;;;;24.85;7.90;;;;;;;;;;5033810;28;20013;-51
2023/09/19 02:03:48;;;;;;;;;;;;;;;;;;5034416;28;20032;-48
2023/09/19 02:06:18;;;;;;;19.45;7.43;;;;;;;;;;5034057;28;19905;-52
2023/09/19 02:08:45;;;;;;;23.83;8.40;;;;;;;;;;5033938;28;20113;-53
2023/09/19 02:11:13;;;;;;;21.45;8.40;;;;;;;;;;5033414;28;20037;-48
2023/09/19 02:13:40;;;;;;;20.58;8.68;;;;;;;;;;5033718;28;20386;-52
2023/09/19 02:16:09;;;;;;;19.95;8.45;;;;;;;;;;5015827;28;20514;-51
2023/09/19 02:18:35;;;;;;;;;;;;;;;;;;5034139;28;20021;-51
2023/09/19 02:21:02;;;;;;;22.05;7.82;;;;;;;;;;5033418;28;20367;-51
2023/09/19 02:23:30;;;;;;;21.30;8.60;;;;;;;;;;5016087;28;20033;-51
2023/09/19 02:26:00;;;;;;;19.17;8.77;;;;;;;;;;5015537;28;20033;-50
2023/09/19 02:28:29;;;;;;;24.38;8.48;;;;;;;;;;5015959;28;20033;-54
2023/09/19 02:30:56;;;;;;;21.67;8.20;;;;;;;;;;5033241;28;20025;-49
2023/09/19 02:33:22;;;;;;;19.17;7.97;;;;;;;;;;5015836;28;20116;-48
2023/09/19 02:35:48;;;;;;;20.73;7.50;;;;;;;;;;5033824;28;20545;-50
2023/09/19 02:38:18;;;;;;;19.83;8.05;;;;;;;;;;5033607;28;20411;-51
2023/09/19 02:40:44;;;;;;;19.90;8.30;;;;;;;;;;5033179;28;20049;-49
2023/09/19 02:43:10;;;;;;;25.42;8.45;;;;;;;;;;5033065;28;20037;-53
2023/09/19 02:45:36;;;;;;;20.02;7.63;;;;;;;;;;5033170;28;20054;-46
2023/09/19 02:48:04;;;;;;;22.08;8.23;;;;;;;;;;5033010;28;20014;-52
2023/09/19 02:50:30;;;;;;;17.73;8.35;;;;;;;;;;5032878;28;20017;-48
2023/09/19 02:52:56;;;;;;;20.10;8.07;;;;;;;;;;5032727;28;20074;-55
2023/09/19 02:55:22;;;;;;;22.00;9.82;;;;;;;;;;5032976;28;20029;-52
2023/09/19 02:57:53;;;;;;;21.98;8.30;;;;;;;;;;5014747;28;20017;-56
2023/09/19 03:00:23;;;;;;;21.23;8.45;;;;;;;;;;5032813;28;20494;-52
2023/09/19 03:02:53;;;;;;;22.73;9.63;;;;;;;;;;5033060;28;20109;-53
2023/09/19 03:05:20;;;;;;;19.65;8.73;;;;;;;;;;5032791;28;20026;-52
2023/09/19 03:07:50;;;;;;;25.60;7.82;;;;;;;;;;5032865;28;20147;-54
2023/09/19 03:10:17;;;;;;;18.65;7.35;;;;;;;;;;5032664;28;20411;-46
2023/09/19 03:12:43;;;;;;;19.10;7.47;;;;;;;;;;5032851;28;20028;-49
2023/09/19 03:15:09;;;;;;;20.85;7.88;;;;;;;;;;5015072;28;20036;-50
2023/09/19 03:17:35;;;;;;;20.90;7.75;;;;;;;;;;5032885;28;20049;-54
2023/09/19 03:20:02;;;;;;;20.38;7.43;;;;;;;;;;5032633;28;20042;-50
2023/09/19 03:22:28;;;;;;;19.15;7.80;;;;;;;;;;5032601;28;20029;-52
2023/09/19 03:24:54;;;;;;;19.45;7.40;;;;;;;;;;5032346;28;20498;-50
2023/09/19 03:27:20;;;;;;;22.23;8.63;;;;;;;;;;5033078;28;20025;-48
2023/09/19 03:29:47;;;;;;;23.42;7.40;;;;;;;;;;5014485;28;20076;-52
2023/09/19 03:32:13;;;;;;;23.38;9.25;;;;;;;;;;5032489;28;20022;-49
2023/09/19 03:34:43;;;;;;;23.33;8.63;;;;;;;;;;5014946;28;20601;-48
2023/09/19 03:37:11;;;;;;;22.90;7.55;;;;;;;;;;5032220;28;20030;-53
2023/09/19 03:39:38;;;;;;;17.10;7.32;;;;;;;;;;5032311;28;20018;-49
2023/09/19 03:42:04;;;;;;;20.80;7.82;;;;;;;;;;5032152;28;20030;-49
2023/09/19 03:44:30;;;;;;;19.85;7.32;;;;;;;;;;5014283;28;20040;-49
2023/09/19 03:46:56;;;;;;;24.83;7.90;;;;;;;;;;5032080;28;20025;-48
2023/09/19 03:49:23;;;;;;;20.10;7.25;;;;;;;;;;5014268;28;20026;-53
2023/09/19 03:51:49;;;;;;;20.52;7.50;;;;;;;;;;5031881;28;20033;-52
2023/09/19 03:54:16;;;;;;;18.50;7.72;;;;;;;;;;5014244;28;20036;-50
2023/09/19 03:56:43;;;;;;;21.98;8.73;;;;;;;;;;5032060;28;20025;-52
2023/09/19 03:59:09;;;;;;;24.55;8.43;;;;;;;;;;5031673;28;20021;-55
2023/09/19 04:01:36;;;;;;;19.27;8.60;;;;;;;;;;5031697;28;20541;-53
2023/09/19 04:04:08;;;;;;;22.85;7.93;;;;;;;;;;5031707;28;20025;-51
2023/09/19 04:06:37;;;;;;;18.48;7.78;;;;;;;;;;5031846;28;20033;-56
2023/09/19 04:09:04;;;;;;;17.75;7.88;;;;;;;;;;5031585;28;20400;-49
2023/09/19 04:11:31;;;;;;;19.08;8.15;;;;;;;;;;5030852;28;20044;-54
2023/09/19 04:13:57;;;;;;;20.45;8.68;;;;;;;;;;5031580;28;20027;-50
2023/09/19 04:16:23;;;;;;;24.00;9.35;;;;;;;;;;5031375;28;20021;-52
2023/09/19 04:18:49;;;;;;;23.92;9.10;;;;;;;;;;5032169;28;20041;-50
2023/09/19 04:21:15;;;;;;;26.10;11.82;;;;;;;;;;5031777;28;20466;-50
2023/09/19 04:23:42;;;;;;;20.90;9.02;;;;;;;;;;5032216;28;20021;-53
2023/09/19 04:26:08;;;;;;;19.60;8.57;;;;;;;;;;5031765;28;20017;-50
2023/09/19 04:28:36;;;;;;;20.40;8.38;;;;;;;;;;5031969;28;20075;-49
2023/09/19 04:31:02;;;;;;;20.83;8.60;;;;;;;;;;5031816;28;20025;-52
2023/09/19 04:33:28;;;;;;;16.73;8.20;;;;;;;;;;5031114;28;20087;-49
2023/09/19 04:35:55;;;;;;;21.92;9.15;;;;;;;;;;5031780;28;20018;-53
2023/09/19 04:38:21;;;;;;;20.13;9.48;;;;;;;;;;5031673;28;20025;-51
2023/09/19 04:40:47;;;;;;;22.92;9.43;;;;;;;;;;5031642;28;20029;-51
2023/09/19 04:43:14;;;;;;;20.77;8.57;;;;;;;;;;5031297;28;20026;-52
2023/09/19 04:45:40;;;;;;;21.38;9.30;;;;;;;;;;5013864;28;20041;-53
2023/09/19 04:48:08;;;;;;;22.02;9.27;;;;;;;;;;5014168;28;20025;-51
2023/09/19 04:50:35;;;;;;;21.40;9.32;;;;;;;;;;5031935;28;20097;-51
2023/09/19 04:53:01;;;;;;;19.02;8.35;;;;;;;;;;5031370;28;20029;-51
2023/09/19 04:55:27;;;;;;;21.58;8.43;;;;;;;;;;5031747;28;20103;-54
2023/09/19 04:57:53;;;;;;;23.40;8.95;;;;;;;;;;5031848;28;20022;-55
2023/09/19 05:00:27;;;;;;;20.55;8.63;;;;;;;;;;5031065;28;20369;-49
2023/09/19 05:02:56;;;;;;;19.60;8.43;;;;;;;;;;5031306;28;20200;-52
2023/09/19 05:05:22;;;;;;;;;;;;;;;;;;5031859;28;20502;-48
2023/09/19 05:07:48;;;;;;;24.90;9.50;;;;;;;;;;5031647;28;19905;-51
2023/09/19 05:10:14;;;;;;;20.92;9.00;;;;;;;;;;5031271;28;20026;-55
2023/09/19 05:12:41;;;;;;;21.17;8.95;;;;;;;;;;5031817;28;20029;-52
2023/09/19 05:15:08;;;;;;;17.40;8.23;;;;;;;;;;5031158;28;20059;-49
2023/09/19 05:17:34;;;;;;;22.33;9.30;;;;;;;;;;5031445;28;20071;-53
2023/09/19 05:20:11;;;;;;;20.20;8.70;;;;;;;;;;5030996;28;20048;-45
2023/09/19 05:22:39;;;;;;;23.08;9.63;;;;;;;;;;5033981;28;20022;-51
2023/09/19 05:25:06;;;;;;;18.58;9.23;;;;;;;;;;5049873;22;20046;-51
2023/09/19 05:27:33;;;;;;;19.45;8.90;;;;;;;;;;5029731;28;20064;-51
2023/09/19 05:29:59;;;;;;;19.98;9.07;;;;;;;;;;5033774;28;20251;-51
2023/09/19 05:32:25;;;;;;;20.20;9.07;;;;;;;;;;5016209;28;20072;-51
2023/09/19 05:34:53;;;;;;;22.77;9.15;;;;;;;;;;5030202;28;20021;-54
2023/09/19 05:37:19;;;;;;;20.10;10.00;;;;;;;;;;5034087;28;20013;-54
2023/09/19 05:39:45;;;;;;;22.60;9.73;;;;;;;;;;5015843;28;20022;-52
2023/09/19 05:42:11;;;;;;;19.65;10.30;;;;;;;;;;5031067;28;20041;-50
2023/09/19 05:44:38;;;;;;;19.52;10.45;;;;;;;;;;5015604;28;20026;-51
2023/09/19 05:47:04;;;;;;;17.80;10.27;;;;;;;;;;5033735;28;20018;-46
2023/09/19 05:49:30;;;;;;;20.40;10.52;;;;;;;;;;5033124;28;20572;-53
2023/09/19 05:51:58;;;;;;;19.23;10.07;;;;;;;;;;5032967;28;20124;-53
2023/09/19 05:54:24;;;;;;;20.58;10.05;;;;;;;;;;5033772;28;20009;-54
2023/09/19 05:56:53;;;;;;;22.17;10.35;;;;;;;;;;5032627;28;20024;-51
2023/09/19 05:59:19;;;;;;;23.40;10.18;;;;;;;;;;5025088;28;20029;-54
2023/09/19 06:01:46;;;;;;;19.23;9.95;;;;;;;;;;5033038;28;20034;-56
2023/09/19 06:04:13;;;;;;;21.45;10.02;;;;;;;;;;5033125;28;20117;-49
2023/09/19 06:06:39;;;;;;;24.17;10.32;;;;;;;;;;5015671;28;20049;-54
2023/09/19 06:09:08;;;;;;;18.23;10.18;;;;;;;;;;5015209;28;20439;-50
2023/09/19 06:11:34;;;;;;;20.63;11.60;;;;;;;;;;5015419;28;20017;-51
2023/09/19 06:14:02;;;;;;;21.25;10.75;;;;;;;;;;5033434;28;20029;-51
2023/09/19 06:16:28;;;;;;;19.98;10.32;;;;;;;;;;5015282;28;20032;-50
2023/09/19 06:18:55;;;;;;;21.35;10.38;;;;;;;;;;5033134;28;20506;-49
2023/09/19 06:21:22;;;;;;;19.27;10.50;;;;;;;;;;5033344;28;20022;-53
2023/09/19 06:23:48;;;;;;;19.77;10.60;;;;;;;;;;5033244;28;20021;-49
2023/09/19 06:26:14;;;;;;;16.75;10.05;;;;;;;;;;5032970;28;20377;-51
2023/09/19 06:28:40;;;;;;;21.08;10.82;;;;;;;;;;5033306;28;20018;-50
2023/09/19 06:31:09;;;;;;;23.67;10.95;;;;;;;;;;5014374;28;20109;-51
2023/09/19 06:33:38;;;;;;;24.30;11.52;;;;;;;;;;5032073;28;20665;-51
2023/09/19 06:36:04;;;;;;;17.95;10.93;;;;;;;;;;5014787;28;20045;-50
2023/09/19 06:38:32;;;;;;;21.23;11.95;;;;;;;;;;5014887;28;20013;-52
2023/09/19 06:41:01;;;;;;;27.02;11.45;;;;;;;;;;5032262;28;20418;-51
2023/09/19 06:43:30;;;;;;;23.25;12.82;;;;;;;;;;5032571;28;20108;-50
2023/09/19 06:45:57;;;;;;;23.55;11.15;;;;;;;;;;5014550;28;20440;-51
2023/09/19 06:48:24;;;;;;;25.20;11.15;;;;;;;;;;5032280;28;20037;-50
2023/09/19 06:50:51;;;;;;;19.75;11.48;;;;;;;;;;5033355;28;20022;-54
2023/09/19 06:53:17;;;;;;;21.83;11.23;;;;;;;;;;5033837;28;20018;-50
2023/09/19 06:55:45;;;;;;;23.63;11.93;;;;;;;;;;5033033;28;20121;-50
2023/09/19 06:58:11;;;;;;;22.20;11.48;;;;;;;;;;5032496;28;20021;-49
2023/09/19 07:00:38;;;;;;;25.00;11.77;;;;;;;;;;5032309;28;20075;-53
2023/09/19 07:03:10;;;;;;;20.10;10.73;;;;;;;;;;5032578;28;20021;-49
2023/09/19 07:05:39;;;;;;;19.70;10.63;;;;;;;;;;5032255;28;20048;-53
2023/09/19 07:08:10;;;;;;;21.77;11.70;;;;;;;;;;5030111;28;20084;-51
2023/09/19 07:10:36;;;;;;;20.92;11.63;;;;;;;;;;5029485;28;20363;-58
2023/09/19 07:13:08;;;;;;;21.98;11.90;;;;;;;;;;5032042;28;20018;-57
2023/09/19 07:15:36;;;;;;;22.40;11.02;;;;;;;;;;5014529;28;20056;-59
2023/09/19 07:18:02;;;;;;;23.13;13.02;;;;;;;;;;5032045;28;20067;-60
2023/09/19 07:20:31;;;;;;;21.02;11.20;;;;;;;;;;5031966;28;20017;-59
2023/09/19 07:22:59;;;;;;;19.70;11.15;;;;;;;;;;5014294;28;20120;-60
2023/09/19 07:25:25;;;;;;;19.50;11.00;;;;;;;;;;5014024;28;20040;-60
2023/09/19 07:27:51;;;;;;;20.77;11.45;;;;;;;;;;5032163;28;20071;-61
2023/09/19 07:30:17;;;;;;;20.33;11.73;;;;;;;;;;5031931;28;20021;-59
2023/09/19 07:32:43;;;;;;;23.02;12.55;;;;;;;;;;5031828;28;20073;-58
2023/09/19 07:35:09;;;;;;;19.50;10.93;;;;;;;;;;5031878;28;20091;-61
2023/09/19 07:37:36;;;;;;;24.75;11.82;;;;;;;;;;5014164;28;20060;-61
2023/09/19 07:40:06;;;;;;;19.00;11.57;;;;;;;;;;5031569;28;20033;-58
2023/09/19 07:42:33;;;;;;;23.50;12.25;;;;;;;;;;5031818;28;20029;-57
2023/09/19 07:44:59;;;;;;;21.73;11.75;;;;;;;;;;5031385;28;20017;-55
2023/09/19 07:47:27;;;;;;;19.08;11.45;;;;;;;;;;5031797;28;20536;-59
2023/09/19 07:49:54;;;;;;;23.45;11.52;;;;;;;;;;5031486;28;20025;-64
2023/09/19 07:52:22;;;;;;;17.52;11.13;;;;;;;;;;5031654;28;20024;-57
2023/09/19 07:54:49;;;;;;;22.00;11.63;;;;;;;;;;5013876;28;20024;-56
2023/09/19 07:57:15;;;;;;;20.17;11.73;;;;;;;;;;5031946;28;20033;-57
2023/09/19 07:59:42;;;;;;;19.48;10.48;;;;;;;;;;5026109;28;20036;-51
2023/09/19 08:02:09;;;;;;;20.58;11.95;;;;;;;;;;5032223;28;20076;-56
2023/09/19 08:04:35;;;;;;;22.47;11.43;;;;;;;;;;5031779;28;20041;-55
2023/09/19 08:07:03;;;;;;;21.15;11.65;;;;;;;;;;5031631;28;20030;-55
2023/09/19 08:09:33;;;;;;;19.17;11.70;;;;;;;;;;5027245;28;20402;-54
2023/09/19 08:12:03;;;;;;;20.30;12.98;;;;;;;;;;5031135;28;20033;-57
2023/09/19 08:14:31;;;;;;;22.45;12.32;;;;;;;;;;5031250;28;20049;-56
2023/09/19 08:16:58;;;;;;;33.67;13.45;;;;;;;;;;5013255;28;20026;-51
2023/09/19 08:19:28;;;;;;;21.33;11.77;;;;;;;;;;5030959;28;20080;-55
2023/09/19 08:21:55;;;;;;;25.67;11.95;;;;;;;;;;5030948;28;20452;-49
2023/09/19 08:24:21;;;;;;;19.70;10.98;;;;;;;;;;5013529;28;20100;-54
2023/09/19 08:26:47;;;;;;;26.73;13.50;;;;;;;;;;5013672;28;20067;-56
2023/09/19 08:29:13;;;;;;;23.90;12.30;;;;;;;;;;5031065;28;20021;-57
2023/09/19 08:31:39;;;;;;;19.13;11.13;;;;;;;;;;5013982;28;20081;-54
2023/09/19 08:34:05;;;;;;;18.13;11.18;;;;;;;;;;5031590;28;20033;-58
2023/09/19 08:36:31;;;;;;;21.33;11.07;;;;;;;;;;5031500;28;20029;-55
2023/09/19 08:38:57;;;;;;;21.42;12.25;;;;;;;;;;5030842;28;20025;-57
2023/09/19 08:41:23;;;;;;;23.15;12.20;;;;;;;;;;5030740;28;20024;-56
2023/09/19 08:43:50;;;;;;;21.33;12.27;;;;;;;;;;5030757;28;20029;-56
2023/09/19 08:46:17;;;;;;;23.25;11.90;;;;;;;;;;5013027;28;20029;-56
2023/09/19 08:48:48;;;;;;;25.50;12.13;;;;;;;;;;5013185;28;20041;-53
2023/09/19 08:51:27;;;;;;;22.02;13.23;;;;;;;;;;5030763;28;20021;-55
2023/09/19 08:54:13;;;;;;;23.65;12.93;;;;;;;;;;5031158;28;20041;-52
2023/09/19 08:56:39;;;;;;;24.20;12.20;;;;;;;;;;5028907;28;20183;-53
2023/09/19 08:59:09;;;;;;;21.75;11.45;;;;;;;;;;5033193;28;20018;-54
2023/09/19 09:01:35;;;;;;;19.25;11.80;;;;;;;;;;5031626;28;20029;-53
2023/09/19 09:04:02;;;;;;;23.65;12.27;;;;;;;;;;5034215;28;20029;-56
2023/09/19 09:06:29;;;;;;;20.90;12.18;;;;;;;;;;5016370;28;20032;-57
2023/09/19 09:08:56;;;;;;;20.85;11.10;;;;;;;;;;5016451;28;20026;-50
2023/09/19 09:11:25;;;;;;;22.52;11.73;;;;;;;;;;5016066;28;20032;-57
2023/09/19 09:13:51;;;;;;;21.75;12.38;;;;;;;;;;5034400;28;20037;-53
2023/09/19 09:16:18;;;;;;;20.33;11.45;;;;;;;;;;5034176;28;20112;-52
2023/09/19 09:18:45;;;;;;;21.67;12.75;;;;;;;;;;5034153;28;20030;-56
2023/09/19 09:21:11;;;;;;;22.05;12.90;;;;;;;;;;5034438;28;20018;-55
2023/09/19 09:23:38;;;;;;;21.67;12.98;;;;;;;;;;5034387;28;20022;-53
2023/09/19 09:26:06;;;;;;;20.02;12.90;;;;;;;;;;5034294;28;20041;-55
2023/09/19 09:28:33;;;;;;;22.40;12.30;;;;;;;;;;5034381;28;20025;-51
2023/09/19 09:30:59;;;;;;;22.15;12.77;;;;;;;;;;5034126;28;20489;-55
2023/09/19 09:33:26;;;;;;;20.42;11.73;;;;;;;;;;5016345;28;20168;-53
2023/09/19 09:35:56;;;;;;;23.83;12.10;;;;;;;;;;5033874;28;20100;-55
2023/09/19 09:38:27;;;;;;;22.75;12.85;;;;;;;;;;5034056;28;20114;-55
2023/09/19 09:40:58;;;;;;;19.80;12.05;;;;;;;;;;5034015;28;20029;-56
2023/09/19 09:43:28;;;;;;;20.67;12.73;;;;;;;;;;5033860;28;20278;-57
2023/09/19 09:49:14;;;;;;;22.05;12.98;;;;;;;;;;5033773;28;20120;-56
2023/09/19 09:51:34;;;;;;;19.45;12.38;;;;;;;;;;5033385;28;20033;-55
2023/09/19 09:54:15;;;;;;;20.23;12.05;;;;;;;;;;5033738;28;20027;-51
2023/09/19 09:56:54;;;;;;;20.55;12.18;;;;;;;;;;5016151;28;20017;-55
2023/09/19 09:59:24;;;;;;;22.35;13.07;;;;;;;;;;5015885;28;20467;-52
2023/09/19 10:01:53;;;;;;;24.40;13.32;;;;;;;;;;5033551;28;20363;-53
2023/09/19 10:04:35;;;;;;;22.48;12.77;;;;;;;;;;5025054;28;20032;-56
2023/09/19 10:07:05;;;;;;;23.30;12.63;;;;;;;;;;5030461;28;20014;-56
2023/09/19 10:09:36;;;;;;;23.80;12.80;;;;;;;;;;5030882;28;20554;-54
2023/09/19 10:12:13;;;;;;;24.05;13.57;;;;;;;;;;5032499;28;20100;-56
2023/09/19 10:14:43;;;;;;;21.98;13.07;;;;;;;;;;5030183;28;20022;-52
2023/09/19 10:17:10;;;;;;;21.70;13.27;;;;;;;;;;5015048;28;20028;-54
2023/09/19 10:19:57;;;;;;;21.17;12.68;;;;;;;;;;5032680;28;20660;-55
2023/09/19 10:22:24;;;;;;;24.10;13.60;;;;;;;;;;5009465;28;20399;-56
2023/09/19 10:24:53;;;;;;;20.95;13.32;;;;;;;;;;5032548;28;20475;-57
2023/09/19 10:27:21;;;;;;;23.83;14.13;;;;;;;;;;5015258;28;20038;-50
2023/09/19 10:29:55;;;;;;;23.17;14.00;;;;;;;;;;5018882;28;20157;-56
2023/09/19 10:32:23;;;;;;;21.58;13.60;;;;;;;;;;5000020;28;20500;-51
2023/09/19 10:34:49;;;;;;;22.08;13.30;;;;;;;;;;5013447;28;20064;-53
2023/09/19 10:37:21;;;;;;;21.20;13.38;;;;;;;;;;5010358;28;20042;-56
2023/09/19 10:39:49;;;;;;;22.33;13.48;;;;;;;;;;5032315;28;20018;-52
2023/09/19 10:42:17;;;;;;;23.25;13.23;;;;;;;;;;5032347;28;20415;-54
2023/09/19 10:44:45;;;;;;;22.27;13.30;;;;;;;;;;5014339;28;20028;-57
2023/09/19 10:47:13;;;;;;;19.88;13.57;;;;;;;;;;5032850;28;20025;-55
2023/09/19 10:49:46;;;;;;;22.27;13.65;;;;;;;;;;5033035;28;20104;-56
2023/09/19 10:52:15;;;;;;;23.25;14.27;;;;;;;;;;5032786;28;20021;-55
2023/09/19 10:54:46;;;;;;;22.77;13.50;;;;;;;;;;5032852;28;20101;-55
2023/09/19 10:57:16;;;;;;;27.60;15.38;;;;;;;;;;5032760;28;20022;-53
2023/09/19 11:00:02;;;;;;;19.23;13.98;;;;;;;;;;5032494;28;20076;-52
2023/09/19 11:02:28;;;;;;;25.52;15.02;;;;;;;;;;5015046;28;20095;-53
2023/09/19 11:04:54;;;;;;;19.95;13.90;;;;;;;;;;5032626;28;20480;-56
2023/09/19 11:07:20;;;;;;;19.17;13.57;;;;;;;;;;5032415;28;20025;-54
2023/09/19 11:10:01;;;;;;;22.45;13.48;;;;;;;;;;5031992;28;20096;-56
2023/09/19 11:12:40;;;;;;;20.58;13.30;;;;;;;;;;5014575;28;20053;-55
2023/09/19 11:15:08;;;;;;;20.83;14.48;;;;;;;;;;5032268;28;20018;-52
2023/09/19 11:17:34;;;;;;;18.08;12.77;;;;;;;;;;5014487;28;20129;-53
2023/09/19 11:25:38;;;;;;;22.00;14.07;;;;;;;;;;5032480;28;20030;-61
2023/09/19 11:28:08;;;;;;;22.77;13.73;;;;;;;;;;5031399;28;20114;-58
2023/09/19 11:30:35;;;;;;;20.13;13.20;;;;;;;;;;5032092;28;20025;-60
2023/09/19 11:33:23;;;;;;;18.65;13.13;;;;;;;;;;5013959;28;20123;-59
2023/09/19 11:35:49;;;;;;;;;;;;;;;;;;5014480;28;20017;-59
2023/09/19 11:38:16;;;;;;;22.00;14.27;;;;;;;;;;5047491;28;20363;-60
2023/09/19 11:40:54;;;;;;;19.20;13.75;;;;;;;;;;5032128;28;20072;-59
2023/09/19 11:43:35;;;;;;;21.95;14.27;;;;;;;;;;5031924;28;20064;-57
2023/09/19 11:46:02;;;;;;;19.73;13.52;;;;;;;;;;5031552;28;20430;-57
2023/09/19 11:48:29;;;;;;;21.15;13.70;;;;;;;;;;5013752;28;20101;-58
2023/09/19 11:50:57;;;;;;;20.02;13.32;;;;;;;;;;5031480;28;20107;-55
2023/09/19 11:53:23;;;;;;;20.00;13.88;;;;;;;;;;5026719;28;20020;-60
2023/09/19 11:55:50;;;;;;;21.67;13.30;;;;;;;;;;5025483;28;20032;-56
2023/09/19 11:58:16;;;;;;;20.90;14.18;;;;;;;;;;5025761;28;20116;-58
2023/09/19 12:00:45;;;;;;;18.67;14.30;;;;;;;;;;5028643;28;20030;-58
2023/09/19 12:03:11;;;;;;;21.15;13.80;;;;;;;;;;5031188;28;20028;-59
2023/09/19 12:05:38;;;;;;;19.05;14.30;;;;;;;;;;5031100;28;20021;-58
2023/09/19 12:08:08;;;;;;;22.90;14.38;;;;;;;;;;5031198;28;20052;-58
2023/09/19 12:10:34;;;;;;;21.08;14.27;;;;;;;;;;5030953;28;20028;-60
2023/09/19 12:13:00;;;;;;;20.00;14.25;;;;;;;;;;5013055;28;20103;-57
2023/09/19 12:15:28;;;;;;;19.98;14.93;;;;;;;;;;5025075;28;20028;-55
2023/09/19 12:17:54;;;;;;;27.83;14.30;;;;;;;;;;5031198;28;20387;-57
2023/09/19 12:20:21;;;;;;;21.02;13.80;;;;;;;;;;5011214;28;20052;-55
2023/09/19 12:22:47;;;;;;;20.40;13.05;;;;;;;;;;5027765;28;20057;-57
2023/09/19 12:25:18;;;;;;;19.98;13.68;;;;;;;;;;5013203;28;20159;-56
2023/09/19 12:27:44;;;;;;;18.67;13.13;;;;;;;;;;5031090;28;20105;-56
2023/09/19 12:30:17;;;;;;;19.65;13.65;;;;;;;;;;5030386;28;20395;-58
2023/09/19 12:32:44;;;;;;;18.95;13.68;;;;;;;;;;5013052;28;20399;-57
2023/09/19 12:35:11;;;;;;;23.00;13.88;;;;;;;;;;5031381;28;20018;-57
2023/09/19 12:37:37;;;;;;;20.00;13.70;;;;;;;;;;5029395;28;20057;-56
2023/09/19 12:40:28;;;;;;;20.00;14.00;;;;;;;;;;5010812;28;20036;-56
2023/09/19 12:42:55;;;;;;;22.35;13.88;;;;;;;;;;5028381;28;20025;-57
2023/09/19 12:45:21;;;;;;;21.00;14.45;;;;;;;;;;5031074;28;20025;-59
2023/09/19 12:48:07;;;;;;;19.75;13.70;;;;;;;;;;5030609;28;20022;-56
2023/09/19 12:50:34;;;;;;;19.27;14.02;;;;;;;;;;5007116;28;20025;-51
2023/09/19 12:53:00;;;;;;;21.75;14.45;;;;;;;;;;5030191;28;20056;-54
2023/09/19 12:55:35;;;;;;;19.77;14.20;;;;;;;;;;5030195;28;20491;-55
2023/09/19 12:58:05;;;;;;;22.15;14.50;;;;;;;;;;5030426;28;20018;-54
2023/09/19 13:00:34;;;;;;;24.98;15.00;;;;;;;;;;5030671;28;20321;-55
2023/09/19 13:03:28;;;;;;;19.77;14.18;;;;;;;;;;5030424;28;20075;-53
2023/09/19 13:05:55;;;;;;;24.33;14.30;;;;;;;;;;5027028;28;20522;-56
2023/09/19 13:08:54;;;;;;;20.92;13.93;;;;;;;;;;5030821;28;20025;-54
2023/09/19 13:11:21;;;;;;;22.50;14.00;;;;;;;;;;5030680;28;20021;-50
2023/09/19 13:13:49;;;;;;;19.92;13.55;;;;;;;;;;5030645;28;20025;-54
2023/09/19 13:16:19;;;;;;;19.70;13.70;;;;;;;;;;5030747;28;20017;-50
2023/09/19 13:18:53;;;;;;;19.50;13.30;;;;;;;;;;5030908;28;20064;-54
2023/09/19 13:21:28;;;;;;;20.00;13.57;;;;;;;;;;5030646;28;20491;-52
2023/09/19 13:23:59;;;;;;;18.80;13.85;;;;;;;;;;5030788;28;20059;-52
2023/09/19 13:26:28;;;;;;;18.92;14.45;;;;;;;;;;5030741;28;20048;-56
2023/09/19 13:28:54;;;;;;;21.80;13.80;;;;;;;;;;5030871;28;20032;-52
2023/09/19 13:31:21;;;;;;;18.90;13.38;;;;;;;;;;5030092;28;20411;-50
2023/09/19 13:33:48;;;;;;;23.38;14.70;;;;;;;;;;5030266;28;20036;-55
2023/09/19 13:36:15;;;;;;;20.73;13.95;;;;;;;;;;5024979;28;20141;-52
2023/09/19 13:38:44;;;;;;;21.95;14.70;;;;;;;;;;5029947;28;20028;-54
2023/09/19 13:41:10;;;;;;;21.38;14.00;;;;;;;;;;5029530;28;20018;-55
2023/09/19 13:43:38;;;;;;;22.05;15.43;;;;;;;;;;5032876;28;20053;-56
2023/09/19 13:46:04;;;;;;;22.40;14.57;;;;;;;;;;5033392;28;20033;-56
2023/09/19 13:48:30;;;;;;;20.67;13.95;;;;;;;;;;5033346;28;20030;-59
2023/09/19 13:50:57;;;;;;;21.38;14.45;;;;;;;;;;5033038;28;20020;-56
2023/09/19 13:53:23;;;;;;;19.63;14.45;;;;;;;;;;5034837;28;20025;-56
2023/09/19 13:55:49;;;;;;;18.48;13.82;;;;;;;;;;5015191;28;20017;-57
2023/09/19 13:58:15;;;;;;;21.42;13.85;;;;;;;;;;5032927;28;20075;-57
2023/09/19 14:00:41;;;;;;;18.63;13.65;;;;;;;;;;5014414;28;20088;-58
2023/09/19 14:03:07;;;;;;;18.55;13.43;;;;;;;;;;5034307;28;20475;-59
2023/09/19 14:05:33;;;;;;;19.88;14.90;;;;;;;;;;5016861;28;20033;-61
2023/09/19 14:07:59;;;;;;;17.67;13.93;;;;;;;;;;5033232;28;20025;-59
2023/09/19 14:10:31;;;;;;;20.30;14.25;;;;;;;;;;5032708;28;20142;-59
2023/09/19 14:12:59;;;;;;;18.05;13.50;;;;;;;;;;5033468;28;20014;-57
2023/09/19 14:15:29;;;;;;;23.50;14.02;;;;;;;;;;5033460;28;20016;-57
2023/09/19 14:17:56;;;;;;;19.35;13.70;;;;;;;;;;5015545;28;20044;-57
2023/09/19 14:20:23;;;;;;;20.20;14.45;;;;;;;;;;5032977;28;20506;-59
2023/09/19 14:22:49;;;;;;;19.38;14.50;;;;;;;;;;5032991;28;20155;-56
2023/09/19 14:25:15;;;;;;;21.45;14.38;;;;;;;;;;5032601;28;20041;-58
2023/09/19 14:27:41;;;;;;;21.95;13.77;;;;;;;;;;5033317;28;20021;-58
2023/09/19 14:30:09;;;;;;;18.23;13.98;;;;;;;;;;5032631;28;20104;-59
2023/09/19 14:32:35;;;;;;;20.13;14.18;;;;;;;;;;5032871;28;20513;-58
2023/09/19 14:35:02;;;;;;;17.13;13.32;;;;;;;;;;5033161;28;20025;-60
2023/09/19 14:37:28;;;;;;;22.00;13.98;;;;;;;;;;5033285;28;20389;-58
2023/09/19 14:39:54;;;;;;;19.50;13.65;;;;;;;;;;5033053;28;20021;-58